sensor_id;sensor_type;location;lat;lon;timestamp;pressure;altitude;pressure_sealevel;temperature;humidity
18569;BME280;14780;48.316;-1.050;2022-09-20T00:00:05;99916.59;;;23.38;41.22
18569;BME280;14780;48.316;-1.050;2022-09-20T00:02:50;99914.09;;;23.37;41.13
18569;BME280;14780;48.316;-1.050;2022-09-20T00:05:37;99917.09;;;23.36;41.25
18569;BME280;14780;48.316;-1.050;2022-09-20T00:08:22;99921.13;;;23.33;41.27
18569;BME280;14780;48.316;-1.050;2022-09-20T00:11:13;99923.63;;;23.35;41.36
18569;BME280;14780;48.316;-1.050;2022-09-20T00:14:00;99919.72;;;23.31;41.38
18569;BME280;14780;48.316;-1.050;2022-09-20T00:16:45;99931.75;;;23.30;41.48
18569;BME280;14780;48.316;-1.050;2022-09-20T00:19:30;99919.41;;;23.27;41.41
18569;BME280;14780;48.316;-1.050;2022-09-20T00:22:15;99919.66;;;23.26;41.49
18569;BME280;14780;48.316;-1.050;2022-09-20T00:24:59;99918.00;;;23.25;41.48
18569;BME280;14780;48.316;-1.050;2022-09-20T00:27:44;99917.41;;;23.23;41.52
18569;BME280;14780;48.316;-1.050;2022-09-20T00:30:30;99912.78;;;23.23;41.39
18569;BME280;14780;48.316;-1.050;2022-09-20T00:33:15;99925.84;;;23.21;41.59
18569;BME280;14780;48.316;-1.050;2022-09-20T00:36:00;99917.91;;;23.20;41.63
18569;BME280;14780;48.316;-1.050;2022-09-20T00:38:45;99920.06;;;23.18;41.54
18569;BME280;14780;48.316;-1.050;2022-09-20T00:41:31;99914.88;;;23.16;41.65
18569;BME280;14780;48.316;-1.050;2022-09-20T00:47:42;99920.53;;;23.15;41.66
18569;BME280;14780;48.316;-1.050;2022-09-20T00:53:48;99924.81;;;23.11;41.72
18569;BME280;14780;48.316;-1.050;2022-09-20T00:56:38;99918.56;;;23.10;41.71
18569;BME280;14780;48.316;-1.050;2022-09-20T00:59:34;99913.31;;;23.09;41.66
18569;BME280;14780;48.316;-1.050;2022-09-20T01:02:24;99912.75;;;23.07;41.72
18569;BME280;14780;48.316;-1.050;2022-09-20T01:05:11;99916.81;;;23.04;41.78
18569;BME280;14780;48.316;-1.050;2022-09-20T01:07:58;99915.16;;;23.03;41.89
18569;BME280;14780;48.316;-1.050;2022-09-20T01:10:42;99920.28;;;23.00;41.97
18569;BME280;14780;48.316;-1.050;2022-09-20T01:13:27;99924.91;;;22.99;41.91
18569;BME280;14780;48.316;-1.050;2022-09-20T01:16:13;99922.41;;;22.98;41.96
18569;BME280;14780;48.316;-1.050;2022-09-20T01:19:03;99918.03;;;22.97;42.03
18569;BME280;14780;48.316;-1.050;2022-09-20T01:21:53;99922.91;;;22.95;42.18
18569;BME280;14780;48.316;-1.050;2022-09-20T01:24:46;99920.19;;;22.95;42.11
18569;BME280;14780;48.316;-1.050;2022-09-20T01:27:42;99921.50;;;22.92;42.11
18569;BME280;14780;48.316;-1.050;2022-09-20T01:34:01;99925.53;;;22.90;42.09
18569;BME280;14780;48.316;-1.050;2022-09-20T01:37:26;99925.53;;;22.90;41.94
18569;BME280;14780;48.316;-1.050;2022-09-20T01:46:15;99922.13;;;22.83;42.37
18569;BME280;14780;48.316;-1.050;2022-09-20T02:20:00;99912.03;;;22.67;42.76
18569;BME280;14780;48.316;-1.050;2022-09-20T02:22:59;99919.63;;;22.65;42.80
18569;BME280;14780;48.316;-1.050;2022-09-20T02:35:40;99913.00;;;22.61;42.94
18569;BME280;14780;48.316;-1.050;2022-09-20T02:47:42;99904.41;;;22.52;43.23
18569;BME280;14780;48.316;-1.050;2022-09-20T02:50:41;99906.28;;;22.52;43.36
18569;BME280;14780;48.316;-1.050;2022-09-20T03:00:15;99904.06;;;22.49;43.39
18569;BME280;14780;48.316;-1.050;2022-09-20T03:12:41;99906.31;;;22.40;43.58
18569;BME280;14780;48.316;-1.050;2022-09-20T03:37:28;99924.47;;;22.35;43.78
18569;BME280;14780;48.316;-1.050;2022-09-20T03:46:28;99914.53;;;22.29;43.95
18569;BME280;14780;48.316;-1.050;2022-09-20T03:52:38;99913.09;;;22.26;43.99
18569;BME280;14780;48.316;-1.050;2022-09-20T04:04:45;99903.28;;;22.25;43.98
18569;BME280;14780;48.316;-1.050;2022-09-20T04:08:01;99909.47;;;22.21;44.38
18569;BME280;14780;48.316;-1.050;2022-09-20T04:14:36;99913.25;;;22.20;44.32
18569;BME280;14780;48.316;-1.050;2022-09-20T04:23:46;99907.19;;;22.18;44.27
18569;BME280;14780;48.316;-1.050;2022-09-20T04:26:44;99906.63;;;22.16;44.44
18569;BME280;14780;48.316;-1.050;2022-09-20T04:29:46;99906.84;;;22.14;44.51
18569;BME280;14780;48.316;-1.050;2022-09-20T04:33:12;99913.16;;;22.15;44.41
18569;BME280;14780;48.316;-1.050;2022-09-20T04:36:02;99913.63;;;22.12;44.46
18569;BME280;14780;48.316;-1.050;2022-09-20T04:39:33;99909.84;;;22.13;44.64
18569;BME280;14780;48.316;-1.050;2022-09-20T04:45:25;99905.34;;;22.07;44.62
18569;BME280;14780;48.316;-1.050;2022-09-20T04:55:48;99907.22;;;22.06;44.71
18569;BME280;14780;48.316;-1.050;2022-09-20T04:58:47;99897.41;;;22.05;44.69
18569;BME280;14780;48.316;-1.050;2022-09-20T05:11:27;99905.00;;;22.03;44.78
18569;BME280;14780;48.316;-1.050;2022-09-20T05:41:41;99922.19;;;21.92;45.26
18569;BME280;14780;48.316;-1.050;2022-09-20T05:47:56;99929.06;;;21.95;45.35
18569;BME280;14780;48.316;-1.050;2022-09-20T05:51:12;99931.78;;;21.95;45.39
18569;BME280;14780;48.316;-1.050;2022-09-20T05:54:40;99937.22;;;21.95;45.44
18569;BME280;14780;48.316;-1.050;2022-09-20T06:00:56;99934.16;;;21.91;45.45
18569;BME280;14780;48.316;-1.050;2022-09-20T06:04:46;99937.47;;;21.93;45.43
18569;BME280;14780;48.316;-1.050;2022-09-20T06:17:42;99940.44;;;21.92;45.72
18569;BME280;14780;48.316;-1.050;2022-09-20T06:23:31;99944.25;;;21.91;45.59
18569;BME280;14780;48.316;-1.050;2022-09-20T06:26:23;99952.66;;;21.89;45.72
18569;BME280;14780;48.316;-1.050;2022-09-20T06:29:11;99946.34;;;21.89;45.66
18569;BME280;14780;48.316;-1.050;2022-09-20T06:31:58;99949.69;;;21.91;45.67
18569;BME280;14780;48.316;-1.050;2022-09-20T06:34:43;99955.16;;;21.91;45.69
18569;BME280;14780;48.316;-1.050;2022-09-20T06:37:44;99952.41;;;21.91;45.68
18569;BME280;14780;48.316;-1.050;2022-09-20T06:40:53;99954.31;;;21.90;45.67
18569;BME280;14780;48.316;-1.050;2022-09-20T06:44:01;99963.31;;;21.91;45.53
18569;BME280;14780;48.316;-1.050;2022-09-20T06:46:46;99965.44;;;21.89;45.61
18569;BME280;14780;48.316;-1.050;2022-09-20T06:49:31;99964.34;;;21.90;45.70
18569;BME280;14780;48.316;-1.050;2022-09-20T06:52:20;99962.25;;;21.92;45.67
18569;BME280;14780;48.316;-1.050;2022-09-20T06:55:09;99957.59;;;21.92;45.70
18569;BME280;14780;48.316;-1.050;2022-09-20T06:57:59;99963.06;;;21.92;45.63
18569;BME280;14780;48.316;-1.050;2022-09-20T07:00:44;99962.25;;;21.92;45.73
18569;BME280;14780;48.316;-1.050;2022-09-20T07:03:30;99962.25;;;21.92;45.73
18569;BME280;14780;48.316;-1.050;2022-09-20T07:06:16;99972.06;;;21.93;45.74
18569;BME280;14780;48.316;-1.050;2022-09-20T07:09:03;99972.06;;;21.93;45.81
18569;BME280;14780;48.316;-1.050;2022-09-20T07:11:49;99975.59;;;21.93;45.88
18569;BME280;14780;48.316;-1.050;2022-09-20T07:14:33;99967.22;;;21.95;45.86
18569;BME280;14780;48.316;-1.050;2022-09-20T07:17:18;99972.44;;;21.96;45.84
18569;BME280;14780;48.316;-1.050;2022-09-20T07:20:02;99973.50;;;21.95;45.81
18569;BME280;14780;48.316;-1.050;2022-09-20T07:22:48;99978.69;;;21.97;45.78
18569;BME280;14780;48.316;-1.050;2022-09-20T07:25:33;99980.09;;;21.99;45.82
18569;BME280;14780;48.316;-1.050;2022-09-20T07:28:20;99974.44;;;22.01;45.93
18569;BME280;14780;48.316;-1.050;2022-09-20T07:31:04;99977.16;;;22.01;45.94
18569;BME280;14780;48.316;-1.050;2022-09-20T07:33:49;99964.59;;;22.00;45.81
18569;BME280;14780;48.316;-1.050;2022-09-20T07:36:33;99967.31;;;22.00;45.85
18569;BME280;14780;48.316;-1.050;2022-09-20T07:39:18;99967.91;;;22.02;45.86
18569;BME280;14780;48.316;-1.050;2022-09-20T07:42:03;99964.09;;;22.03;45.86
18569;BME280;14780;48.316;-1.050;2022-09-20T07:44:50;99985.44;;;22.06;45.88
18569;BME280;14780;48.316;-1.050;2022-09-20T07:47:36;99986.25;;;22.06;45.98
18569;BME280;14780;48.316;-1.050;2022-09-20T07:50:25;99988.75;;;22.08;45.77
18569;BME280;14780;48.316;-1.050;2022-09-20T07:53:09;99987.69;;;22.09;45.84
18569;BME280;14780;48.316;-1.050;2022-09-20T07:56:13;99988.88;;;22.13;45.89
18569;BME280;14780;48.316;-1.050;2022-09-20T07:58:58;99985.31;;;22.12;45.92
18569;BME280;14780;48.316;-1.050;2022-09-20T08:01:43;99982.34;;;22.14;45.86
18569;BME280;14780;48.316;-1.050;2022-09-20T08:04:28;99976.06;;;22.13;45.90
18569;BME280;14780;48.316;-1.050;2022-09-20T08:07:12;99987.31;;;22.17;45.93
18569;BME280;14780;48.316;-1.050;2022-09-20T08:09:57;99986.25;;;22.18;45.94
18569;BME280;14780;48.316;-1.050;2022-09-20T08:12:43;99993.97;;;22.21;45.94
18569;BME280;14780;48.316;-1.050;2022-09-20T08:15:28;99996.44;;;22.22;45.94
18569;BME280;14780;48.316;-1.050;2022-09-20T08:18:13;99993.47;;;22.24;45.78
18569;BME280;14780;48.316;-1.050;2022-09-20T08:21:06;99999.50;;;22.26;45.91
18569;BME280;14780;48.316;-1.050;2022-09-20T08:23:52;100000.13;;;22.28;45.84
18569;BME280;14780;48.316;-1.050;2022-09-20T08:26:37;100002.84;;;22.28;45.83
18569;BME280;14780;48.316;-1.050;2022-09-20T08:29:22;100004.25;;;22.30;45.79
18569;BME280;14780;48.316;-1.050;2022-09-20T08:32:07;100008.38;;;22.33;45.82
18569;BME280;14780;48.316;-1.050;2022-09-20T08:34:52;100010.06;;;22.34;45.82
18569;BME280;14780;48.316;-1.050;2022-09-20T08:37:37;100013.13;;;22.37;45.84
18569;BME280;14780;48.316;-1.050;2022-09-20T08:40:23;100004.97;;;22.37;45.68
18569;BME280;14780;48.316;-1.050;2022-09-20T08:43:09;100017.03;;;22.41;45.80
18569;BME280;14780;48.316;-1.050;2022-09-20T08:45:59;100023.94;;;22.44;45.83
18569;BME280;14780;48.316;-1.050;2022-09-20T08:48:46;100014.69;;;22.45;45.85
18569;BME280;14780;48.316;-1.050;2022-09-20T08:51:33;100022.41;;;22.48;45.87
18569;BME280;14780;48.316;-1.050;2022-09-20T08:54:19;100030.66;;;22.53;45.76
18569;BME280;14780;48.316;-1.050;2022-09-20T08:57:14;100020.94;;;22.57;45.70
18569;BME280;14780;48.316;-1.050;2022-09-20T09:00:02;100028.06;;;22.58;45.79
18569;BME280;14780;48.316;-1.050;2022-09-20T09:02:53;100022.94;;;22.61;45.71
18569;BME280;14780;48.316;-1.050;2022-09-20T09:05:43;100032.28;;;22.65;45.76
18569;BME280;14780;48.316;-1.050;2022-09-20T09:08:33;100040.22;;;22.67;45.73
18569;BME280;14780;48.316;-1.050;2022-09-20T09:11:20;100036.19;;;22.69;45.74
18569;BME280;14780;48.316;-1.050;2022-09-20T09:14:12;100042.00;;;22.73;45.64
18569;BME280;14780;48.316;-1.050;2022-09-20T09:17:22;100053.25;;;22.76;45.60
18569;BME280;14780;48.316;-1.050;2022-09-20T09:20:18;100041.03;;;22.79;45.67
18569;BME280;14780;48.316;-1.050;2022-09-20T09:23:10;100044.00;;;22.77;45.61
18569;BME280;14780;48.316;-1.050;2022-09-20T09:26:04;100037.72;;;22.77;45.56
18569;BME280;14780;48.316;-1.050;2022-09-20T09:32:29;100044.94;;;22.83;45.55
18569;BME280;14780;48.316;-1.050;2022-09-20T09:35:25;100048.50;;;22.83;45.44
18569;BME280;14780;48.316;-1.050;2022-09-20T09:38:23;100052.06;;;22.84;45.54
18569;BME280;14780;48.316;-1.050;2022-09-20T09:41:21;100057.25;;;22.85;45.51
18569;BME280;14780;48.316;-1.050;2022-09-20T09:44:30;100058.91;;;22.86;45.36
18569;BME280;14780;48.316;-1.050;2022-09-20T09:47:26;100061.91;;;22.85;45.45
18569;BME280;14780;48.316;-1.050;2022-09-20T09:50:31;100054.78;;;22.84;45.32
18569;BME280;14780;48.316;-1.050;2022-09-20T09:53:21;100056.69;;;22.83;45.33
18569;BME280;14780;48.316;-1.050;2022-09-20T09:56:44;100059.19;;;22.85;45.35
18569;BME280;14780;48.316;-1.050;2022-09-20T10:02:42;100060.25;;;22.84;45.37
18569;BME280;14780;48.316;-1.050;2022-09-20T10:26:41;100074.59;;;22.79;45.16
18569;BME280;14780;48.316;-1.050;2022-09-20T10:38:34;100076.50;;;22.79;45.12
18569;BME280;14780;48.316;-1.050;2022-09-20T10:48:30;100065.03;;;22.77;45.17
18569;BME280;14780;48.316;-1.050;2022-09-20T10:57:47;100069.97;;;22.80;45.17
18569;BME280;14780;48.316;-1.050;2022-09-20T11:07:17;100071.91;;;22.68;44.93
18569;BME280;14780;48.316;-1.050;2022-09-20T11:13:09;100068.25;;;22.62;45.01
18569;BME280;14780;48.316;-1.050;2022-09-20T11:16:19;100072.03;;;22.61;44.96
18569;BME280;14780;48.316;-1.050;2022-09-20T11:19:31;100066.81;;;22.60;44.96
18569;BME280;14780;48.316;-1.050;2022-09-20T11:22:36;100066.59;;;22.61;44.84
18569;BME280;14780;48.316;-1.050;2022-09-20T11:28:19;100061.94;;;22.62;44.92
18569;BME280;14780;48.316;-1.050;2022-09-20T11:37:07;100062.63;;;22.69;45.03
18569;BME280;14780;48.316;-1.050;2022-09-20T11:39:53;100053.25;;;22.76;44.97
18569;BME280;14780;48.316;-1.050;2022-09-20T11:42:39;100054.78;;;22.84;45.08
18569;BME280;14780;48.316;-1.050;2022-09-20T11:45:25;100053.78;;;22.90;45.11
18569;BME280;14780;48.316;-1.050;2022-09-20T11:48:25;100053.53;;;23.03;44.96
18569;BME280;14780;48.316;-1.050;2022-09-20T11:57:01;100052.63;;;23.25;45.07
18569;BME280;14780;48.316;-1.050;2022-09-20T11:59:53;100047.91;;;23.37;44.89
18569;BME280;14780;48.316;-1.050;2022-09-20T12:02:49;100055.00;;;23.49;44.84
18569;BME280;14780;48.316;-1.050;2022-09-20T12:05:38;100046.63;;;23.56;44.89
18569;BME280;14780;48.316;-1.050;2022-09-20T12:08:42;100056.47;;;23.73;44.70
18569;BME280;14780;48.316;-1.050;2022-09-20T12:11:35;100046.78;;;23.82;44.70
18569;BME280;14780;48.316;-1.050;2022-09-20T12:14:27;100045.16;;;23.98;44.59
18569;BME280;14780;48.316;-1.050;2022-09-20T12:41:08;100007.53;;;25.12;42.79
18569;BME280;14780;48.316;-1.050;2022-09-20T12:43:58;100008.25;;;25.24;42.70
18569;BME280;14780;48.316;-1.050;2022-09-20T12:47:01;100000.72;;;25.41;42.34
18569;BME280;14780;48.316;-1.050;2022-09-20T12:52:55;100002.94;;;25.76;42.07
18569;BME280;14780;48.316;-1.050;2022-09-20T12:55:42;100005.25;;;25.89;42.02
18569;BME280;14780;48.316;-1.050;2022-09-20T12:58:49;100004.22;;;26.00;41.29
18569;BME280;14780;48.316;-1.050;2022-09-20T13:01:37;100001.84;;;26.08;41.37
18569;BME280;14780;48.316;-1.050;2022-09-20T13:04:52;99998.63;;;26.26;41.08
18569;BME280;14780;48.316;-1.050;2022-09-20T13:07:42;100001.94;;;26.28;40.82
18569;BME280;14780;48.316;-1.050;2022-09-20T13:10:29;100001.13;;;26.28;40.69
18569;BME280;14780;48.316;-1.050;2022-09-20T13:13:32;99994.97;;;26.52;40.52
18569;BME280;14780;48.316;-1.050;2022-09-20T13:19:24;99991.25;;;26.88;39.60
18569;BME280;14780;48.316;-1.050;2022-09-20T13:22:29;99986.00;;;26.77;39.68
18569;BME280;14780;48.316;-1.050;2022-09-20T13:25:19;99982.28;;;26.46;39.66
18569;BME280;14780;48.316;-1.050;2022-09-20T13:31:24;99975.19;;;26.55;39.26
18569;BME280;14780;48.316;-1.050;2022-09-20T13:34:17;99974.59;;;26.48;39.64
18569;BME280;14780;48.316;-1.050;2022-09-20T13:37:03;99969.22;;;26.73;39.30
18569;BME280;14780;48.316;-1.050;2022-09-20T13:39:53;99960.09;;;26.53;39.40
18569;BME280;14780;48.316;-1.050;2022-09-20T13:42:38;99965.16;;;26.29;39.33
18569;BME280;14780;48.316;-1.050;2022-09-20T13:45:23;99959.81;;;26.03;39.54
18569;BME280;14780;48.316;-1.050;2022-09-20T13:48:08;99954.50;;;25.86;39.77
18569;BME280;14780;48.316;-1.050;2022-09-20T13:50:54;99955.75;;;25.74;39.82
18569;BME280;14780;48.316;-1.050;2022-09-20T13:53:38;99957.03;;;25.61;39.88
18569;BME280;14780;48.316;-1.050;2022-09-20T13:56:26;99946.53;;;25.48;39.95
18569;BME280;14780;48.316;-1.050;2022-09-20T13:59:13;99955.78;;;25.37;39.93
18569;BME280;14780;48.316;-1.050;2022-09-20T14:02:01;99948.53;;;25.26;40.00
18569;BME280;14780;48.316;-1.050;2022-09-20T14:04:46;99943.19;;;25.15;40.17
18569;BME280;14780;48.316;-1.050;2022-09-20T14:07:34;99950.00;;;25.07;40.17
18569;BME280;14780;48.316;-1.050;2022-09-20T14:10:31;99946.63;;;25.00;40.21
18569;BME280;14780;48.316;-1.050;2022-09-20T14:13:17;99947.38;;;24.91;40.30
18569;BME280;14780;48.316;-1.050;2022-09-20T14:16:02;99938.22;;;24.80;40.48
18569;BME280;14780;48.316;-1.050;2022-09-20T14:18:48;99940.88;;;24.75;40.42
18569;BME280;14780;48.316;-1.050;2022-09-20T14:21:36;99943.56;;;24.70;40.51
18569;BME280;14780;48.316;-1.050;2022-09-20T14:24:33;99944.09;;;24.67;40.51
18569;BME280;14780;48.316;-1.050;2022-09-20T14:27:22;99939.66;;;24.61;40.51
18569;BME280;14780;48.316;-1.050;2022-09-20T14:30:28;99936.91;;;24.61;40.56
18569;BME280;14780;48.316;-1.050;2022-09-20T14:33:18;99936.25;;;24.54;40.72
18569;BME280;14780;48.316;-1.050;2022-09-20T14:36:04;99939.50;;;24.51;40.67
18569;BME280;14780;48.316;-1.050;2022-09-20T14:38:56;99932.88;;;24.47;40.60
18569;BME280;14780;48.316;-1.050;2022-09-20T14:41:42;99930.66;;;24.44;40.66
18569;BME280;14780;48.316;-1.050;2022-09-20T14:44:31;99933.09;;;24.41;40.70
18569;BME280;14780;48.316;-1.050;2022-09-20T14:47:34;99926.78;;;24.40;40.73
18569;BME280;14780;48.316;-1.050;2022-09-20T14:50:40;99920.75;;;24.38;40.90
18569;BME280;14780;48.316;-1.050;2022-09-20T14:53:26;99930.53;;;24.34;40.88
18569;BME280;14780;48.316;-1.050;2022-09-20T14:56:18;99923.94;;;24.30;40.94
18569;BME280;14780;48.316;-1.050;2022-09-20T15:02:14;99917.91;;;24.28;40.98
18569;BME280;14780;48.316;-1.050;2022-09-20T15:04:59;99917.59;;;24.25;40.99
18569;BME280;14780;48.316;-1.050;2022-09-20T15:07:44;99918.34;;;24.20;40.93
18569;BME280;14780;48.316;-1.050;2022-09-20T15:10:30;99915.84;;;24.19;40.98
18569;BME280;14780;48.316;-1.050;2022-09-20T15:13:15;99922.13;;;24.19;41.00
18569;BME280;14780;48.316;-1.050;2022-09-20T15:16:00;99914.47;;;24.16;41.01
18569;BME280;14780;48.316;-1.050;2022-09-20T15:18:46;99919.94;;;24.16;40.99
18569;BME280;14780;48.316;-1.050;2022-09-20T15:21:30;99917.44;;;24.15;41.17
18569;BME280;14780;48.316;-1.050;2022-09-20T15:24:15;99920.44;;;24.13;41.09
18569;BME280;14780;48.316;-1.050;2022-09-20T15:27:02;99910.31;;;24.14;41.01
18569;BME280;14780;48.316;-1.050;2022-09-20T15:29:47;99914.47;;;24.16;41.16
18569;BME280;14780;48.316;-1.050;2022-09-20T15:32:32;99909.88;;;24.22;41.15
18569;BME280;14780;48.316;-1.050;2022-09-20T15:35:16;99911.06;;;24.31;41.30
18569;BME280;14780;48.316;-1.050;2022-09-20T15:38:01;99905.97;;;24.39;41.27
18569;BME280;14780;48.316;-1.050;2022-09-20T15:40:48;99912.31;;;24.45;41.27
18569;BME280;14780;48.316;-1.050;2022-09-20T15:43:32;99912.66;;;24.48;41.28
18569;BME280;14780;48.316;-1.050;2022-09-20T15:46:23;99906.38;;;24.48;41.21
18569;BME280;14780;48.316;-1.050;2022-09-20T15:49:11;99905.81;;;24.46;41.32
18569;BME280;14780;48.316;-1.050;2022-09-20T15:51:56;99905.53;;;24.47;41.19
18569;BME280;14780;48.316;-1.050;2022-09-20T15:54:41;99900.56;;;24.44;41.24
18569;BME280;14780;48.316;-1.050;2022-09-20T15:57:26;99898.09;;;24.43;41.33
18569;BME280;14780;48.316;-1.050;2022-09-20T16:00:12;99904.34;;;24.38;41.26
18569;BME280;14780;48.316;-1.050;2022-09-20T16:02:56;99893.06;;;24.35;41.28
18569;BME280;14780;48.316;-1.050;2022-09-20T16:05:41;99897.97;;;24.33;41.39
18569;BME280;14780;48.316;-1.050;2022-09-20T16:08:33;99899.63;;;24.34;41.43
18569;BME280;14780;48.316;-1.050;2022-09-20T16:11:20;99898.53;;;24.35;41.41
18569;BME280;14780;48.316;-1.050;2022-09-20T16:14:05;99904.59;;;24.37;41.51
18569;BME280;14780;48.316;-1.050;2022-09-20T16:16:50;99902.69;;;24.37;41.60
18569;BME280;14780;48.316;-1.050;2022-09-20T16:19:35;99904.34;;;24.38;41.56
18569;BME280;14780;48.316;-1.050;2022-09-20T16:22:23;99909.56;;;24.40;41.63
18569;BME280;14780;48.316;-1.050;2022-09-20T16:25:07;99906.53;;;24.41;41.75
18569;BME280;14780;48.316;-1.050;2022-09-20T16:27:52;99908.22;;;24.42;41.79
18569;BME280;14780;48.316;-1.050;2022-09-20T16:30:37;99906.03;;;24.44;41.82
18569;BME280;14780;48.316;-1.050;2022-09-20T16:33:21;99907.13;;;24.43;41.96
18569;BME280;14780;48.316;-1.050;2022-09-20T16:36:06;99902.75;;;24.42;41.92
18569;BME280;14780;48.316;-1.050;2022-09-20T16:38:51;99902.75;;;24.42;42.05
18569;BME280;14780;48.316;-1.050;2022-09-20T16:41:39;99900.25;;;24.41;42.15
18569;BME280;14780;48.316;-1.050;2022-09-20T16:44:24;99898.09;;;24.43;42.08
18569;BME280;14780;48.316;-1.050;2022-09-20T16:47:14;99899.75;;;24.44;42.07
18569;BME280;14780;48.316;-1.050;2022-09-20T16:50:05;99895.59;;;24.41;42.02
18569;BME280;14780;48.316;-1.050;2022-09-20T16:52:51;99894.78;;;24.41;42.09
18569;BME280;14780;48.316;-1.050;2022-09-20T16:55:36;99897.78;;;24.39;42.21
18569;BME280;14780;48.316;-1.050;2022-09-20T16:58:28;99894.47;;;24.37;42.16
18569;BME280;14780;48.316;-1.050;2022-09-20T17:01:14;99892.81;;;24.36;42.28
18569;BME280;14780;48.316;-1.050;2022-09-20T17:03:59;99899.63;;;24.34;42.32
18569;BME280;14780;48.316;-1.050;2022-09-20T17:06:48;99897.41;;;24.31;42.49
18569;BME280;14780;48.316;-1.050;2022-09-20T17:09:33;99894.09;;;24.29;42.64
18569;BME280;14780;48.316;-1.050;2022-09-20T17:12:18;99894.34;;;24.27;42.55
18569;BME280;14780;48.316;-1.050;2022-09-20T17:15:08;99900.34;;;24.24;42.60
18569;BME280;14780;48.316;-1.050;2022-09-20T17:17:56;99891.56;;;24.22;42.66
18569;BME280;14780;48.316;-1.050;2022-09-20T17:20:41;99892.06;;;24.19;42.67
18569;BME280;14780;48.316;-1.050;2022-09-20T17:23:27;99890.94;;;24.15;42.81
18569;BME280;14780;48.316;-1.050;2022-09-20T17:26:14;99891.44;;;24.12;42.88
18569;BME280;14780;48.316;-1.050;2022-09-20T17:29:00;99897.41;;;24.09;42.83
18569;BME280;14780;48.316;-1.050;2022-09-20T17:31:48;99889.13;;;24.04;42.97
18569;BME280;14780;48.316;-1.050;2022-09-20T17:34:34;99891.25;;;23.97;42.85
18569;BME280;14780;48.316;-1.050;2022-09-20T17:37:19;99911.38;;;23.91;42.89
18569;BME280;14780;48.316;-1.050;2022-09-20T17:40:04;99909.66;;;23.85;42.94
18569;BME280;14780;48.316;-1.050;2022-09-20T17:42:49;99906.84;;;23.80;43.08
18569;BME280;14780;48.316;-1.050;2022-09-20T17:45:34;99910.31;;;23.76;43.06
18569;BME280;14780;48.316;-1.050;2022-09-20T17:48:19;99908.59;;;23.70;43.19
18569;BME280;14780;48.316;-1.050;2022-09-20T17:51:08;99906.63;;;23.65;42.95
18569;BME280;14780;48.316;-1.050;2022-09-20T17:53:53;99902.16;;;23.59;43.11
18569;BME280;14780;48.316;-1.050;2022-09-20T17:56:44;99909.19;;;23.55;43.08
18569;BME280;14780;48.316;-1.050;2022-09-20T17:59:29;99912.94;;;23.49;43.05
18569;BME280;14780;48.316;-1.050;2022-09-20T18:02:14;99906.81;;;23.42;43.11
18569;BME280;14780;48.316;-1.050;2022-09-20T18:04:59;99909.78;;;23.41;43.17
18569;BME280;14780;48.316;-1.050;2022-09-20T18:07:44;99908.97;;;23.40;43.17
18569;BME280;14780;48.316;-1.050;2022-09-20T18:10:29;99905.31;;;23.35;43.19
18569;BME280;14780;48.316;-1.050;2022-09-20T18:13:13;99913.28;;;23.37;43.20
18569;BME280;14780;48.316;-1.050;2022-09-20T18:15:58;99910.56;;;23.37;43.20
18569;BME280;14780;48.316;-1.050;2022-09-20T18:18:44;99913.28;;;23.37;43.19
18569;BME280;14780;48.316;-1.050;2022-09-20T18:21:31;99910.31;;;23.38;43.33
18569;BME280;14780;48.316;-1.050;2022-09-20T18:24:17;99908.97;;;23.40;43.27
18569;BME280;14780;48.316;-1.050;2022-09-20T18:27:01;99921.06;;;23.44;43.34
18569;BME280;14780;48.316;-1.050;2022-09-20T18:29:48;99910.69;;;23.46;43.47
18569;BME280;14780;48.316;-1.050;2022-09-20T18:32:33;99917.56;;;23.49;43.46
18569;BME280;14780;48.316;-1.050;2022-09-20T18:35:18;99913.50;;;23.51;43.59
18569;BME280;14780;48.316;-1.050;2022-09-20T18:38:02;99918.97;;;23.51;43.66
18569;BME280;14780;48.316;-1.050;2022-09-20T18:40:56;99919.06;;;23.56;43.64
18569;BME280;14780;48.316;-1.050;2022-09-20T18:43:46;99928.31;;;23.55;43.74
18569;BME280;14780;48.316;-1.050;2022-09-20T18:46:30;99923.44;;;23.57;43.73
18569;BME280;14780;48.316;-1.050;2022-09-20T18:49:15;99930.56;;;23.58;43.79
18569;BME280;14780;48.316;-1.050;2022-09-20T18:52:02;99925.09;;;23.58;44.12
18569;BME280;14780;48.316;-1.050;2022-09-20T18:54:47;99922.13;;;23.60;44.10
18569;BME280;14780;48.316;-1.050;2022-09-20T18:57:32;99928.16;;;23.62;44.15
18569;BME280;14780;48.316;-1.050;2022-09-20T19:00:17;99925.19;;;23.63;44.07
18569;BME280;14780;48.316;-1.050;2022-09-20T19:03:28;99923.50;;;23.62;44.29
18569;BME280;14780;48.316;-1.050;2022-09-20T19:06:11;99927.91;;;23.63;44.27
18569;BME280;14780;48.316;-1.050;2022-09-20T19:09:05;99926.84;;;23.64;44.37
18569;BME280;14780;48.316;-1.050;2022-09-20T19:12:00;99923.00;;;23.65;44.34
18569;BME280;14780;48.316;-1.050;2022-09-20T19:27:14;99944.97;;;23.70;44.59
18569;BME280;14780;48.316;-1.050;2022-09-20T19:29:59;99942.47;;;23.69;44.76
18569;BME280;14780;48.316;-1.050;2022-09-20T19:32:44;99943.28;;;23.69;44.68
18569;BME280;14780;48.316;-1.050;2022-09-20T19:35:34;99953.72;;;23.72;44.91
18569;BME280;14780;48.316;-1.050;2022-09-20T19:38:32;99956.47;;;23.72;44.86
18569;BME280;14780;48.316;-1.050;2022-09-20T19:47:24;99954.06;;;23.76;45.19
18569;BME280;14780;48.316;-1.050;2022-09-20T19:53:19;99962.56;;;23.79;45.38
18569;BME280;14780;48.316;-1.050;2022-09-20T19:59:02;99954.94;;;23.81;45.38
18569;BME280;14780;48.316;-1.050;2022-09-20T20:01:47;99959.09;;;23.84;45.48
18569;BME280;14780;48.316;-1.050;2022-09-20T20:04:32;99960.97;;;23.83;45.42
18569;BME280;14780;48.316;-1.050;2022-09-20T20:07:33;99963.25;;;23.86;45.65
18569;BME280;14780;48.316;-1.050;2022-09-20T20:13:47;99960.00;;;23.89;45.51
18569;BME280;14780;48.316;-1.050;2022-09-20T20:20:13;99966.56;;;23.88;45.79
18569;BME280;14780;48.316;-1.050;2022-09-20T20:26:20;99973.69;;;23.89;45.88
18569;BME280;14780;48.316;-1.050;2022-09-20T20:29:05;99973.69;;;23.89;45.80
18569;BME280;14780;48.316;-1.050;2022-09-20T20:31:50;99976.16;;;23.91;45.99